• Join FlightAware (Why Join?)
  • Login
  • US Flag 
11:59PM EDT


 

Airport Tracker/Info


-or-


 

Live Flight TrackerFlight Track Log ✈ EJA357 ✈ 03-Jan-2014 ✈ TUPJ / EIS - KSWF

Flight Track Log - Related Links

Times and Time Zones

All times are in EST time to prevent confusion due to time zone crossing. See the EJA357 flight status page for this flight to view local times or setup timezone preferences in your user account.

Time Position Orientation Groundspeed Altitude Reporting Facility
EST Latitude Longitude Course Direction KTS MPH feet Rate Location/Type
11:46AM 18.4833 -64.5500 270° West 210 242 4,700  Level San Juan Center
11:47AM 18.4833 -64.6333 270° West 270 311 8,500 2,640 Climbing San Juan Center
11:48AM 18.5500 -64.6833 325° Northwest 330 380 10,100 1,800 Climbing San Juan Center
11:49AM 18.6333 -64.7500 323° Northwest 370 426 12,200 2,280 Climbing San Juan Center
11:50AM 18.7167 -64.8167 323° Northwest 380 437 14,700 2,160 Climbing San Juan Center
11:51AM 18.8000 -64.8833 323° Northwest 390 449 16,600 1,620 Climbing San Juan Center
11:52AM 19.0876 -64.7572 270° West  Level Estimated
11:52AM 18.9000 -64.9667 322° Northwest 420 483 18,000  Level San Juan Center
11:53AM 18.9833 -65.0500 317° Northwest 430 495 19,500 1,500 Climbing San Juan Center
11:54AM 19.0833 -65.1167 328° Northwest 440 506 21,100 1,620 Climbing San Juan Center
11:55AM 19.1667 -65.1833 323° Northwest 430 495 22,800 1,680 Climbing San Juan Center
11:56AM 19.2667 -65.2667 322° Northwest 420 483 24,500 1,500 Climbing San Juan Center
11:57AM 19.3500 -65.3333 323° Northwest 420 483 25,900 1,380 Climbing San Juan Center
11:58AM 19.4500 -65.4167 322° Northwest 430 495 27,300 1,380 Climbing San Juan Center
11:59AM 19.5500 -65.5000 322° Northwest 440 506 28,700 1,440 Climbing San Juan Center
12:00PM 19.6500 -65.5667 328° Northwest 440 506 30,200 1,440 Climbing San Juan Center
12:01PM 19.7500 -65.6500 322° Northwest 440 506 31,600 1,500 Climbing San Juan Center
12:02PM 19.8333 -65.7333 317° Northwest 430 495 33,300 1,440 Climbing San Juan Center
12:03PM 19.9333 -65.8000 328° Northwest 420 483 34,600 1,380 Climbing San Juan Center
12:04PM 20.0167 -65.8833 317° Northwest 410 472 36,100 1,200 Climbing San Juan Center
12:05PM 20.1167 -65.9500 328° Northwest 400 460 37,100 900 Climbing San Juan Center
12:06PM 20.2000 -66.0167 323° Northwest 400 460 38,000 900 Climbing San Juan Center
12:07PM 20.2833 -66.1000 317° Northwest 400 460 38,900 1,020 Climbing San Juan Center
12:08PM 20.3833 -66.1667 328° Northwest 390 449 40,100 1,200 Climbing San Juan Center
12:09PM 20.4667 -66.2333 323° Northwest 380 437 41,300 1,080 Climbing San Juan Center
12:10PM 20.5333 -66.3000 317° Northwest 350 403 42,300 840 Climbing San Juan Center
12:11PM 20.6167 -66.3667 323° Northwest 350 403 43,000 300 Climbing San Juan Center
12:12PM 20.7167 -66.4500 322° Northwest 360 414 43,000  Level San Juan Center
12:13PM 20.8000 -66.5000 331° Northwest 370 426 43,000  Level San Juan Center
12:14PM 20.8833 -66.5667 323° Northwest 370 426 43,000  Level San Juan Center
12:15PM 20.9667 -66.6500 317° Northwest 380 437 43,000  Level San Juan Center
12:16PM 21.0500 -66.7167 323° Northwest 380 437 43,000  Level San Juan Center
12:17PM 21.1333 -66.7833 323° Northwest 390 449 43,000  Level San Juan Center
12:18PM 21.2167 -66.8500 323° Northwest 390 449 43,000  Level San Juan Center
12:19PM 21.3000 -66.9333 317° Northwest 390 449 43,000  Level San Juan Center
12:20PM 21.3833 -67.0000 323° Northwest 390 449 43,000  Level San Juan Center
12:21PM 21.4667 -67.0667 323° Northwest 390 449 43,000  Level San Juan Center
12:22PM 21.5500 -67.1500 317° Northwest 390 449 43,000  Level San Juan Center
12:23PM 21.6167 -67.2000 349° North 369 425 43,000  Level New York Oceanic (ODAPS)
12:33PM 22.2333 -67.3167 349° North 408 470 43,000  Level New York Oceanic (ODAPS)
12:59PM 25.4667 -68.0000 349° North 409 471 43,000  Level New York Oceanic (ODAPS)
01:20PM 27.9333 -68.5333 349° North 416 479 43,000  Level New York Oceanic (ODAPS)
01:48PM 30.9000 -69.2333 349° North 400 460 43,000  Level New York Oceanic (ODAPS)
02:09PM 33.3000 -69.8167 348° North 429 494 43,000  Level New York Oceanic (ODAPS)
02:29PM 35.7667 -70.4500 348° North 422 486 43,000  Level New York Oceanic (ODAPS)
02:41PM 37.1764 -70.8369 324° Northwest 424 488 43,000  Level New York Center
02:42PM 37.2581 -70.8554 348° North 422 486 43,000  Level FlightAware Transoceanic
02:42PM 37.2933 -70.8686 348° North 424 488 43,000  Level New York Center
02:43PM 37.3727 -70.8872 348° North 422 486 43,000  Level FlightAware Transoceanic
02:43PM 37.4122 -70.8975 349° North 429 494 43,000  Level New York Center
02:44PM 37.4874 -70.9192 348° North 422 486 43,000  Level FlightAware Transoceanic
02:44PM 37.5267 -70.9369 345° North 429 494 43,000  Level New York Center
02:45PM 37.6020 -70.9512 347° North 422 486 43,000  Level FlightAware Transoceanic
02:45PM 37.6436 -70.9664 349° North 429 494 43,000  Level New York Center
02:46PM 37.7167 -70.9833 324° Northwest 422 486 43,000  Level FlightAware Transoceanic
02:46PM 37.7561 -71.0086 343° North 424 488 43,000  Level New York Center
02:47PM 37.8622 -71.0642 338° Northwest 414 476 43,000  Level New York Center
02:48PM 37.9728 -71.1069 343° North 414 476 43,000  Level New York Center
02:49PM 38.0811 -71.1578 340° North 408 470 43,000  Level New York Center
02:50PM 38.1872 -71.2058 340° North 408 470 43,000  Level New York Center
02:51PM 38.2956 -71.2517 342° North 408 470 43,000  Level New York Center
02:52PM 38.4017 -71.3028 339° North 408 470 43,000 -360 Level New York Center
02:53PM 38.5097 -71.3514 341° North 408 470 42,300 -900 Descending New York Center
02:54PM 38.6158 -71.3975 341° North 408 470 41,200 -1,020 Descending New York Center
02:55PM 38.7239 -71.4464 341° North 408 470 40,300 -600 Descending New York Center
02:56PM 38.8364 -71.5008 339° North 408 470 40,000 -180 Descending New York Center
02:57PM 38.9464 -71.5525 340° North 408 470 40,000  Level New York Center
02:58PM 39.0567 -71.6075 339° North 413 475 40,000  Level New York Center
02:59PM 39.1686 -71.6569 341° North 413 475 40,000  Level New York Center
03:00PM 39.2789 -71.7094 340° North 418 481 40,000 -1,140 Level New York Center
03:02PM 39.5022 -71.8133 340° North 421 484 36,700 -1,860 Descending Boston Center
03:03PM 39.4158 -71.7729 340° North  Level FlightAware Approximate
03:03PM 39.6092 -71.8639 340° North 412 474 34,500  Level Boston Center
03:04PM 39.7125 -71.9150 339° North 399 459 32,400 -2,160 Descending Boston Center
03:05PM 39.8208 -71.9661 340° North 408 470 30,200 -2,160 Descending Boston Center
03:06PM 39.9261 -72.0164 340° North 408 470 28,100 -2,040 Descending Boston Center
03:07PM 40.0272 -72.0633 340° North 393 452 26,100 -1,920 Descending Boston Center
03:08PM 40.1203 -72.1072 340° North 367 422 24,200 -1,080 Descending Boston Center
03:09PM 40.2253 -72.1583 340° North 360 414 24,000 -600 Descending Boston Center
03:10PM 40.3167 -72.2025 340° North 355 409 23,100 -900 Descending Boston Center
03:11PM 40.4031 -72.2439 340° North 340 391 22,200 -840 Descending Boston Center
03:12PM 40.4922 -72.2872 340° North 340 391 21,500 -720 Descending Boston Center
03:13PM 40.5800 -72.3294 340° North 338 389 20,800 -780 Descending Boston Center
03:14PM 40.6658 -72.3714 340° North 333 383 20,000 -780 Descending Boston Center
03:15PM 40.7586 -72.4181 339° North 332 382 19,300 -720 Descending Boston Center
03:16PM 40.8386 -72.4550 341° North 306 352 18,600 -720 Descending Boston Center
03:17PM 40.9178 -72.4950 339° North 308 354 17,900 -660 Descending Boston Center
03:18PM 40.9964 -72.5344 339° North 307 353 17,300 -900 Descending Boston Center
03:19PM 41.0600 -72.6092 318° Northwest 318 366 16,200 -660 Descending Boston Center
03:20PM 41.1319 -72.7092 314° West 318 366 16,000 -120 Descending Boston Center
03:22PM 41.1914 -72.7903 314° West 311 358 16,000 -600 Level Boston Center
03:23PM 41.2481 -72.8697 314° West 304 350 14,900 -1,320 Descending Boston Center
03:24PM 41.3092 -72.9533 314° West 302 348 13,400 -1,440 Descending Boston Center
03:25PM 41.3686 -73.0361 314° West 307 353 12,000 -1,200 Descending Boston Center
03:26PM 41.4272 -73.1172 314° West 306 352 11,100 -480 Descending Boston Center
03:27PM 41.4903 -73.2058 314° West 306 352 11,100 -60 Level Boston Center
03:28PM 41.5486 -73.2881 313° West 305 351 11,000  Descending Boston Center
03:29PM 41.6081 -73.3733 313° West 306 352 11,100  Climbing Boston Center
03:30PM 41.6658 -73.4556 313° West 305 351 11,100 -180 Level Boston Center
03:31PM 41.7239 -73.5364 314° West 303 349 10,800 -780 Descending Boston Center
03:32PM 41.7356 -73.6181 281° West 261 300 9,600 -1,260 Descending Boston Center
03:33PM 41.6606 -73.6447 195° South 284 327 8,300 -1,380 Descending Boston Center
03:34PM 41.6061 -73.7111 222° Southwest 256 295 6,800 -1,440 Descending Boston Center
03:35PM 41.5700 -73.7942 240° Southwest 259 298 5,400 -1,260 Descending Boston Center
03:36PM 41.5383 -73.8758 243° Southwest 243 280 4,300 -1,200 Descending Boston Center
03:37PM 41.5286 -73.9483 260° West 202 232 3,000 -1,140 Descending Boston Center
03:38PM 41.5197 -74.0072 259° West 169 194 2,100 -840 Descending Boston Center
03:39PM 41.5167 -74.0500 265° West 109 125 1,200 -840 Descending New York TRACON
03:42PM 41.5000 -74.1000 254° West  Level FlightAware Approximate
03:49PM 41.5041 -74.1048 254° West  Level Estimated